Time,TemperatureF,DewpointF,PressureIn,WindDirection,WindDirectionDegrees,WindSpeedMPH,WindSpeedGustMPH,Humidity,HourlyPrecipIn,Conditions,Clouds,dailyrainin,SolarRadiationWatts/m^2,SoftwareType,DateUTC
2013-07-22 00:00:00,63.0,56.0,-100.00,East,90,1.0,-999.0,77,0.01,,,-99.99,2.320000,,2013-07-22 04:00:00,
2013-07-22 00:33:00,63.0,56.0,-100.00,East,90,1.0,-999.0,77,0.01,,,-99.99,2.320000,,2013-07-22 04:33:00,
2013-07-22 00:43:00,63.0,56.0,-100.00,East,90,1.0,-999.0,77,0.01,,,-99.99,2.320000,,2013-07-22 04:43:00,
2013-07-22 01:00:00,63.0,57.0,-100.00,East,90,1.0,-999.0,81,-99.99,,,-99.99,2.320000,,2013-07-22 05:00:00,
2013-07-22 01:43:00,63.0,57.0,-100.00,East,90,1.0,-999.0,81,-99.99,,,-99.99,2.320000,,2013-07-22 05:43:00,
2013-07-22 01:52:00,63.0,57.0,-100.00,East,90,1.0,-999.0,81,-99.99,,,-99.99,2.320000,,2013-07-22 05:52:00,
2013-07-22 02:00:00,64.0,58.0,-100.00,East,90,2.0,-999.0,81,-99.99,,,-99.99,2.320000,,2013-07-22 06:00:00,
2013-07-22 02:43:00,64.0,58.0,-100.00,East,90,2.0,-999.0,81,-99.99,,,-99.99,2.320000,,2013-07-22 06:43:00,
2013-07-22 02:52:00,64.0,58.0,-100.00,East,90,2.0,-999.0,81,-99.99,,,-99.99,2.320000,,2013-07-22 06:52:00,
2013-07-22 03:00:00,63.0,57.0,-100.00,SE,135,1.0,-999.0,80,-99.99,,,-99.99,2.320000,,2013-07-22 07:00:00,
2013-07-22 03:43:00,63.0,57.0,-100.00,SE,135,1.0,-999.0,80,-99.99,,,-99.99,2.320000,,2013-07-22 07:43:00,
2013-07-22 03:53:00,63.0,57.0,-100.00,SE,135,1.0,-999.0,80,-99.99,,,-99.99,2.320000,,2013-07-22 07:53:00,
2013-07-22 04:00:00,62.0,56.0,-100.00,SE,135,2.0,-999.0,81,-99.99,,,-99.99,2.320000,,2013-07-22 08:00:00,
2013-07-22 04:43:00,62.0,56.0,-100.00,SE,135,2.0,-999.0,81,-99.99,,,-99.99,2.320000,,2013-07-22 08:43:00,
2013-07-22 04:52:00,62.0,56.0,-100.00,SE,135,2.0,-999.0,81,-99.99,,,-99.99,2.320000,,2013-07-22 08:52:00,
2013-07-22 05:00:00,62.0,57.0,-100.00,SE,135,2.0,-999.0,85,-99.99,,,-99.99,2.320000,,2013-07-22 09:00:00,
2013-07-22 05:33:00,62.0,57.0,-100.00,SE,135,2.0,-999.0,85,-99.99,,,-99.99,2.320000,,2013-07-22 09:33:00,
2013-07-22 05:42:00,62.0,57.0,-100.00,SE,135,2.0,-999.0,85,-99.99,,,-99.99,2.320000,,2013-07-22 09:42:00,
2013-07-22 05:52:00,62.0,57.0,-100.00,SE,135,2.0,-999.0,85,-99.99,,,-99.99,2.320000,,2013-07-22 09:52:00,
2013-07-22 06:00:00,62.0,58.0,-100.00,ESE,112,3.0,-999.0,85,-99.99,,,-99.99,2.320000,,2013-07-22 10:00:00,
2013-07-22 06:32:00,62.0,58.0,-100.00,ESE,112,3.0,-999.0,85,-99.99,,,-99.99,2.320000,,2013-07-22 10:32:00,
2013-07-22 06:43:00,62.0,58.0,-100.00,ESE,112,3.0,-999.0,85,-99.99,,,-99.99,2.320000,,2013-07-22 10:43:00,
2013-07-22 06:53:00,62.0,58.0,-100.00,ESE,112,3.0,-999.0,85,-99.99,,,-99.99,2.320000,,2013-07-22 10:53:00,
2013-07-22 07:00:00,63.0,57.0,-100.00,SE,135,3.0,-999.0,83,-99.99,,,-99.99,19.719999,,2013-07-22 11:00:00,
2013-07-22 07:32:00,63.0,57.0,-100.00,SE,135,3.0,-999.0,83,-99.99,,,-99.99,19.719999,,2013-07-22 11:32:00,
2013-07-22 07:43:00,63.0,57.0,-100.00,SE,135,3.0,-999.0,83,-99.99,,,-99.99,19.719999,,2013-07-22 11:43:00,
2013-07-22 07:52:00,63.0,57.0,-100.00,SE,135,3.0,-999.0,83,-99.99,,,-99.99,19.719999,,2013-07-22 11:52:00,
2013-07-22 08:00:00,65.0,59.0,-100.00,SSE,157,3.0,-999.0,80,-99.99,,,-99.99,121.800003,,2013-07-22 12:00:00,
2013-07-22 08:43:00,65.0,59.0,-100.00,SSE,157,3.0,-999.0,80,-99.99,,,-99.99,121.800003,,2013-07-22 12:43:00,
2013-07-22 08:53:00,65.0,59.0,-100.00,SSE,157,3.0,-999.0,80,-99.99,,,-99.99,121.800003,,2013-07-22 12:53:00,
2013-07-22 09:00:00,68.0,60.0,-100.00,South,180,3.0,-999.0,75,-99.99,,,-99.99,285.359985,,2013-07-22 13:00:00,
2013-07-22 09:43:00,68.0,60.0,-100.00,South,180,3.0,-999.0,75,-99.99,,,-99.99,285.359985,,2013-07-22 13:43:00,
2013-07-22 09:53:00,68.0,60.0,-100.00,South,180,3.0,-999.0,75,-99.99,,,-99.99,285.359985,,2013-07-22 13:53:00,
2013-07-22 10:00:00,71.0,61.0,-100.00,SSW,202,3.0,-999.0,71,-99.99,,,-99.99,441.959991,,2013-07-22 14:00:00,
2013-07-22 10:43:00,71.0,61.0,-100.00,SSW,202,3.0,-999.0,71,-99.99,,,-99.99,441.959991,,2013-07-22 14:43:00,
2013-07-22 10:53:00,71.0,61.0,-100.00,SSW,202,3.0,-999.0,71,-99.99,,,-99.99,441.959991,,2013-07-22 14:53:00,
2013-07-22 11:00:00,74.0,62.0,-100.00,South,180,4.0,-999.0,65,-99.99,,,-99.99,585.799988,,2013-07-22 15:00:00,
2013-07-22 11:43:00,74.0,62.0,-100.00,South,180,4.0,-999.0,65,-99.99,,,-99.99,585.799988,,2013-07-22 15:43:00,
2013-07-22 11:52:00,74.0,62.0,-100.00,South,180,4.0,-999.0,65,-99.99,,,-99.99,585.799988,,2013-07-22 15:52:00,
2013-07-22 12:00:00,77.0,62.0,-100.00,SW,225,4.0,-999.0,60,-99.99,,,-99.99,683.239990,,2013-07-22 16:00:00,
2013-07-22 12:43:00,77.0,62.0,-100.00,SW,225,4.0,-999.0,60,-99.99,,,-99.99,683.239990,,2013-07-22 16:43:00,
2013-07-22 12:52:00,77.0,62.0,-100.00,SW,225,4.0,-999.0,60,-99.99,,,-99.99,683.239990,,2013-07-22 16:52:00,
2013-07-22 13:00:00,78.0,62.0,-100.00,SSW,202,4.0,-999.0,58,-99.99,,,-99.99,754.000000,,2013-07-22 17:00:00,
2013-07-22 13:43:00,78.0,62.0,-100.00,SSW,202,4.0,-999.0,58,-99.99,,,-99.99,754.000000,,2013-07-22 17:43:00,
2013-07-22 13:52:00,78.0,62.0,-100.00,SSW,202,4.0,-999.0,58,-99.99,,,-99.99,754.000000,,2013-07-22 17:52:00,
2013-07-22 14:00:00,81.0,63.0,-100.00,SW,225,3.0,-999.0,54,-99.99,,,-99.99,787.640015,,2013-07-22 18:00:00,
2013-07-22 14:55:00,81.0,63.0,-100.00,SW,225,3.0,-999.0,54,-99.99,,,-99.99,787.640015,,2013-07-22 18:55:00,
2013-07-22 15:00:00,83.0,63.0,-100.00,WSW,247,5.0,-999.0,50,-99.99,,,-99.99,806.200012,,2013-07-22 19:00:00,
2013-07-22 15:47:00,83.0,63.0,-100.00,WSW,247,5.0,-999.0,50,-99.99,,,-99.99,806.200012,,2013-07-22 19:47:00,
2013-07-22 15:55:00,83.0,63.0,-100.00,WSW,247,5.0,-999.0,50,-99.99,,,-99.99,806.200012,,2013-07-22 19:55:00,
2013-07-22 16:00:00,82.0,65.0,-100.00,West,270,2.0,-999.0,57,-99.99,,,-99.99,720.359985,,2013-07-22 20:00:00,
2013-07-22 16:43:00,82.0,65.0,-100.00,West,270,2.0,-999.0,57,-99.99,,,-99.99,720.359985,,2013-07-22 20:43:00,
2013-07-22 16:52:00,82.0,65.0,-100.00,West,270,2.0,-999.0,57,-99.99,,,-99.99,720.359985,,2013-07-22 20:52:00,
2013-07-22 17:00:00,82.0,66.0,-100.00,West,270,2.0,-999.0,58,-99.99,,,-99.99,632.200012,,2013-07-22 21:00:00,
2013-07-22 17:43:00,82.0,66.0,-100.00,West,270,2.0,-999.0,58,-99.99,,,-99.99,632.200012,,2013-07-22 21:43:00,
2013-07-22 17:53:00,82.0,66.0,-100.00,West,270,2.0,-999.0,58,-99.99,,,-99.99,632.200012,,2013-07-22 21:53:00,
2013-07-22 18:00:00,83.0,66.0,-100.00,WSW,247,1.0,-999.0,56,-99.99,,,-99.99,499.959991,,2013-07-22 22:00:00,
2013-07-22 18:43:00,83.0,66.0,-100.00,WSW,247,1.0,-999.0,56,-99.99,,,-99.99,499.959991,,2013-07-22 22:43:00,
2013-07-22 18:52:00,83.0,66.0,-100.00,WSW,247,1.0,-999.0,56,-99.99,,,-99.99,499.959991,,2013-07-22 22:52:00,
2013-07-22 19:00:00,81.0,64.0,-100.00,West,270,2.0,-999.0,57,-99.99,,,-99.99,247.080002,,2013-07-22 23:00:00,
2013-07-22 19:32:00,81.0,64.0,-100.00,West,270,2.0,-999.0,57,-99.99,,,-99.99,247.080002,,2013-07-22 23:32:00,
2013-07-22 19:43:00,81.0,64.0,-100.00,West,270,2.0,-999.0,57,-99.99,,,-99.99,247.080002,,2013-07-22 23:43:00,
2013-07-22 19:52:00,81.0,64.0,-100.00,West,270,2.0,-999.0,57,-99.99,,,-99.99,247.080002,,2013-07-22 23:52:00,
2013-07-22 20:00:00,80.0,62.0,-100.00,WSW,247,4.0,-999.0,55,-99.99,,,-99.99,90.480003,,2013-07-23 00:00:00,
2013-07-22 20:43:00,80.0,62.0,-100.00,WSW,247,4.0,-999.0,55,-99.99,,,-99.99,90.480003,,2013-07-23 00:43:00,
2013-07-22 20:52:00,80.0,62.0,-100.00,WSW,247,4.0,-999.0,55,-99.99,,,-99.99,90.480003,,2013-07-23 00:52:00,
2013-07-22 21:00:00,79.0,62.0,-100.00,SW,225,4.0,-999.0,55,-99.99,,,-99.99,20.879999,,2013-07-23 01:00:00,
2013-07-22 21:43:00,79.0,62.0,-100.00,SW,225,4.0,-999.0,55,-99.99,,,-99.99,20.879999,,2013-07-23 01:43:00,
2013-07-22 21:53:00,79.0,62.0,-100.00,SW,225,4.0,-999.0,55,-99.99,,,-99.99,20.879999,,2013-07-23 01:53:00,
2013-07-22 22:00:00,78.0,62.0,-100.00,SW,225,5.0,-999.0,59,-99.99,,,-99.99,3.480000,,2013-07-23 02:00:00,
2013-07-22 22:43:00,78.0,62.0,-100.00,SW,225,5.0,-999.0,59,-99.99,,,-99.99,3.480000,,2013-07-23 02:43:00,
2013-07-22 22:53:00,78.0,62.0,-100.00,SW,225,5.0,-999.0,59,-99.99,,,-99.99,3.480000,,2013-07-23 02:53:00,
2013-07-22 23:00:00,77.0,63.0,-100.00,SW,225,4.0,-999.0,62,-99.99,,,-99.99,2.320000,,2013-07-23 03:00:00,
2013-07-22 23:43:00,77.0,63.0,-100.00,SW,225,4.0,-999.0,62,-99.99,,,-99.99,2.320000,,2013-07-23 03:43:00,
2013-07-22 23:52:00,77.0,63.0,-100.00,SW,225,4.0,-999.0,62,-99.99,,,-99.99,2.320000,,2013-07-23 03:52:00,